createdAt,value
2017-10-12T00:00:12.092Z,54.02
2017-10-12T00:01:20.755Z,54.02
2017-10-12T00:02:30.079Z,53.92
2017-10-12T00:03:39.071Z,54.21
2017-10-12T00:04:48.046Z,54.21
2017-10-12T00:05:57.030Z,54.02
2017-10-12T00:07:06.379Z,54.11
2017-10-12T00:08:15.369Z,53.92
2017-10-12T00:09:24.693Z,54.11
2017-10-12T00:10:34.020Z,54.11
2017-10-12T00:11:43.013Z,54.11
2017-10-12T00:12:52.670Z,54.11
2017-10-12T00:14:01.965Z,54.21
2017-10-12T00:15:11.294Z,54.21
2017-10-12T00:16:20.307Z,54.11
2017-10-12T00:17:29.603Z,54.21
2017-10-12T00:18:38.243Z,54.21
2017-10-12T00:19:47.546Z,54.11
2017-10-12T00:20:56.846Z,54.21
2017-10-12T00:22:05.811Z,54.21
2017-10-12T00:23:15.802Z,54.21
2017-10-12T00:24:25.101Z,54.11
2017-10-12T00:25:34.081Z,54.11
2017-10-12T00:26:43.388Z,53.73
2017-10-12T00:27:52.358Z,54.11
2017-10-12T00:29:01.341Z,54.21
2017-10-12T00:30:10.647Z,54.21
2017-10-12T00:31:19.293Z,54.21
2017-10-12T00:32:28.263Z,54.31
2017-10-12T00:33:36.976Z,54.21
2017-10-12T00:34:46.937Z,54.21
2017-10-12T00:35:56.236Z,54.21
2017-10-12T00:37:05.204Z,54.11
2017-10-12T00:38:13.867Z,54.21
2017-10-12T00:39:22.676Z,54.21
2017-10-12T00:40:31.657Z,54.11
2017-10-12T00:41:40.374Z,54.21
2017-10-12T00:42:49.388Z,54.21
2017-10-12T00:43:58.734Z,54.11
2017-10-12T00:45:08.075Z,54.11
2017-10-12T00:46:17.407Z,54.21
2017-10-12T00:47:26.062Z,54.21
2017-10-12T00:48:36.506Z,54.11
2017-10-12T00:49:45.526Z,54.11
2017-10-12T00:50:55.132Z,54.21
2017-10-12T00:52:03.793Z,54.21
2017-10-12T00:53:12.786Z,54.21
2017-10-12T00:54:22.434Z,54.21
2017-10-12T00:55:31.429Z,54.21
2017-10-12T00:56:40.729Z,54.21
2017-10-12T00:57:49.720Z,54.11
2017-10-12T00:58:59.065Z,54.21
2017-10-12T01:00:08.732Z,54.11
2017-10-12T01:01:17.387Z,54.21
2017-10-12T01:02:26.664Z,54.21
2017-10-12T01:03:36.005Z,54.21
2017-10-12T01:04:44.695Z,54.21
2017-10-12T01:05:53.709Z,54.21
2017-10-12T01:07:02.368Z,54.21
2017-10-12T01:08:11.142Z,54.11
2017-10-12T01:09:20.446Z,54.21
2017-10-12T01:10:29.750Z,54.11
2017-10-12T01:11:38.420Z,54.21
2017-10-12T01:12:48.074Z,54.11
2017-10-12T01:13:56.843Z,54.21
2017-10-12T01:15:05.500Z,54.21
2017-10-12T01:16:15.152Z,54.11
2017-10-12T01:17:24.474Z,54.21
2017-10-12T01:18:33.812Z,54.21
2017-10-12T01:19:43.145Z,54.21
2017-10-12T01:20:52.141Z,54.21
2017-10-12T01:22:01.124Z,54.21
2017-10-12T01:23:09.796Z,54.21
2017-10-12T01:24:18.773Z,54.21
2017-10-12T01:25:28.111Z,54.11
2017-10-12T01:26:37.765Z,54.11
2017-10-12T01:27:46.456Z,54.21
2017-10-12T01:28:55.460Z,54.21
2017-10-12T01:30:04.778Z,54.11
2017-10-12T01:31:13.780Z,53.83
2017-10-12T01:32:23.736Z,54.11
2017-10-12T01:33:32.389Z,54.4
2017-10-12T01:34:41.712Z,54.21
2017-10-12T01:35:50.365Z,54.11
2017-10-12T01:36:59.356Z,53.73
2017-10-12T01:38:08.052Z,54.21
2017-10-12T01:39:17.378Z,54.11
2017-10-12T01:40:26.379Z,54.11
2017-10-12T01:41:35.371Z,54.11
2017-10-12T01:42:44.363Z,54.11
2017-10-12T01:43:53.348Z,54.21
2017-10-12T01:45:02.334Z,54.11
2017-10-12T01:46:10.983Z,54.11
2017-10-12T01:47:19.971Z,53.73
2017-10-12T01:48:28.967Z,54.11
2017-10-12T01:49:37.631Z,54.11
2017-10-12T01:50:46.660Z,54.21
2017-10-12T01:51:55.482Z,54.21
2017-10-12T01:53:04.470Z,54.11
2017-10-12T01:54:13.464Z,54.11
2017-10-12T01:55:22.130Z,54.11
2017-10-12T01:56:31.825Z,54.21
2017-10-12T01:57:40.849Z,54.21
2017-10-12T01:58:49.881Z,54.11
2017-10-12T01:59:59.533Z,54.11
2017-10-12T02:01:08.201Z,54.21
2017-10-12T02:02:17.205Z,53.73
2017-10-12T02:03:25.913Z,54.21
2017-10-12T02:04:34.909Z,54.11
2017-10-12T02:05:44.671Z,54.21
2017-10-12T02:06:53.658Z,54.21
2017-10-12T02:08:02.327Z,54.02
2017-10-12T02:09:12.004Z,54.11
2017-10-12T02:10:21.339Z,54.11
2017-10-12T02:11:30.307Z,54.21
2017-10-12T02:12:38.979Z,54.21
2017-10-12T02:13:47.653Z,54.21
2017-10-12T02:14:56.644Z,54.21
2017-10-12T02:16:05.962Z,54.21
2017-10-12T02:17:14.955Z,54.21
2017-10-12T02:18:24.001Z,54.11
2017-10-12T02:19:33.323Z,54.11
2017-10-12T02:20:42.651Z,54.11
2017-10-12T02:21:51.665Z,54.11
2017-10-12T02:23:00.977Z,54.11
2017-10-12T02:24:09.958Z,54.21
2017-10-12T02:25:18.932Z,54.11
2017-10-12T02:26:28.242Z,54.21
2017-10-12T02:27:37.240Z,54.11
2017-10-12T02:28:46.519Z,54.11
2017-10-12T02:29:55.514Z,54.11
2017-10-12T02:31:04.577Z,53.83
2017-10-12T02:32:13.243Z,53.83
2017-10-12T02:33:22.243Z,54.11
2017-10-12T02:34:31.242Z,54.21
2017-10-12T02:35:40.593Z,54.11
2017-10-12T02:36:49.939Z,54.11
2017-10-12T02:37:59.253Z,54.11
2017-10-12T02:39:08.581Z,53.73
2017-10-12T02:40:18.002Z,54.11
2017-10-12T02:41:26.699Z,54.11
2017-10-12T02:42:35.377Z,54.21
2017-10-12T02:43:44.715Z,54.21
2017-10-12T02:44:54.041Z,54.21
2017-10-12T02:46:03.038Z,54.11
2017-10-12T02:47:12.389Z,54.21
2017-10-12T02:48:22.045Z,54.11
2017-10-12T02:49:31.379Z,54.21
2017-10-12T02:50:40.382Z,54.21
2017-10-12T02:51:50.123Z,54.4
2017-10-12T02:52:59.140Z,54.21
2017-10-12T02:54:08.465Z,54.21
2017-10-12T02:55:17.111Z,54.21
2017-10-12T02:56:26.094Z,54.21
2017-10-12T02:57:34.815Z,54.11
2017-10-12T02:58:44.472Z,54.21
2017-10-12T02:59:53.837Z,54.11
2017-10-12T03:01:02.853Z,54.21
2017-10-12T03:02:11.543Z,54.11
2017-10-12T03:03:20.866Z,54.21
2017-10-12T03:04:30.214Z,54.24
2017-10-12T03:05:39.551Z,54.21
2017-10-12T03:06:49.192Z,54.21
2017-10-12T03:07:58.189Z,54.21
2017-10-12T03:09:07.198Z,54.11
2017-10-12T03:10:16.535Z,54.11
2017-10-12T03:11:25.848Z,54.21
2017-10-12T03:12:34.857Z,54.21
2017-10-12T03:13:44.157Z,54.21
2017-10-12T03:14:53.433Z,54.21
2017-10-12T03:16:02.417Z,54.21
2017-10-12T03:17:11.075Z,54.11
2017-10-12T03:18:20.054Z,54.21
2017-10-12T03:19:28.701Z,54.21
2017-10-12T03:20:37.998Z,54.14
2017-10-12T03:21:47.002Z,54.21
2017-10-12T03:22:55.992Z,54.11
2017-10-12T03:24:05.656Z,54.21
2017-10-12T03:25:14.305Z,54.21
2017-10-12T03:26:22.965Z,54.21
2017-10-12T03:27:32.283Z,54.21
2017-10-12T03:28:40.950Z,54.21
2017-10-12T03:29:49.599Z,54.11
2017-10-12T03:30:58.251Z,54.21
2017-10-12T03:32:07.016Z,54.31
2017-10-12T03:33:16.333Z,54.02
2017-10-12T03:34:25.645Z,54.21
2017-10-12T03:35:34.304Z,54.21
2017-10-12T03:36:43.043Z,54.21
2017-10-12T03:37:52.049Z,54.11
2017-10-12T03:39:00.708Z,54.21
2017-10-12T03:40:10.022Z,54.21
2017-10-12T03:41:19.081Z,54.21
2017-10-12T03:42:27.770Z,54.11
2017-10-12T03:43:37.427Z,54.21
2017-10-12T03:44:46.435Z,54.21
2017-10-12T03:45:55.747Z,54.11
2017-10-12T03:47:04.741Z,54.21
2017-10-12T03:48:13.469Z,54.21
2017-10-12T03:49:22.461Z,54.11
2017-10-12T03:50:31.482Z,54.21
2017-10-12T03:51:40.809Z,54.11
2017-10-12T03:52:49.796Z,54.11
2017-10-12T03:53:58.784Z,54.11
2017-10-12T03:55:08.153Z,54.11
2017-10-12T03:56:16.832Z,54.21
2017-10-12T03:57:26.155Z,54.11
2017-10-12T03:58:34.810Z,54.21
2017-10-12T03:59:43.792Z,54.11
2017-10-12T04:00:53.117Z,53.73
2017-10-12T04:02:02.103Z,54.21
2017-10-12T04:03:10.760Z,54.11
2017-10-12T04:04:19.429Z,54.31
2017-10-12T04:05:28.082Z,53.73
2017-10-12T04:06:36.743Z,54.21
2017-10-12T04:07:46.088Z,54.11
2017-10-12T04:08:55.078Z,54.21
2017-10-12T04:10:04.507Z,54.11
2017-10-12T04:11:13.174Z,54.21
2017-10-12T04:12:21.952Z,54.21
2017-10-12T04:13:30.947Z,54.11
2017-10-12T04:14:39.613Z,54.21
2017-10-12T04:15:48.935Z,54.11
2017-10-12T04:16:57.915Z,54.11
2017-10-12T04:18:07.566Z,54.21
2017-10-12T04:19:16.894Z,54.11
2017-10-12T04:20:25.563Z,54.11
2017-10-12T04:21:34.911Z,54.21
2017-10-12T04:22:44.221Z,54.21
2017-10-12T04:23:53.319Z,54.11
2017-10-12T04:25:02.632Z,54.11
2017-10-12T04:26:12.314Z,54.21
2017-10-12T04:27:21.035Z,54.11
2017-10-12T04:28:30.350Z,54.21
2017-10-12T04:29:39.387Z,54.21
2017-10-12T04:30:48.061Z,54.21
2017-10-12T04:31:57.071Z,54.21
2017-10-12T04:33:05.888Z,54.21
2017-10-12T04:34:14.891Z,54.11
2017-10-12T04:35:24.239Z,54.11
2017-10-12T04:36:33.586Z,54.11
2017-10-12T04:37:42.575Z,54.11
2017-10-12T04:38:51.889Z,54.02
2017-10-12T04:40:00.901Z,53.83
2017-10-12T04:41:09.932Z,54.21
2017-10-12T04:42:19.247Z,53.83
2017-10-12T04:43:28.298Z,54.31
2017-10-12T04:44:37.010Z,53.83
2017-10-12T04:45:46.324Z,54.02
2017-10-12T04:46:55.974Z,54.02
2017-10-12T04:48:04.646Z,54.02
2017-10-12T04:49:13.686Z,54.4
2017-10-12T04:50:22.996Z,54.02
2017-10-12T04:51:32.639Z,54.11
2017-10-12T04:52:41.981Z,54.11
2017-10-12T04:53:50.997Z,54.4
2017-10-12T04:55:00.012Z,54.11
2017-10-12T04:56:09.326Z,54.21
2017-10-12T04:57:18.300Z,54.31
2017-10-12T04:58:27.716Z,54.5
2017-10-12T04:59:36.690Z,54.11
2017-10-12T05:00:45.349Z,54.11
2017-10-12T05:01:54.002Z,54.02
2017-10-12T05:03:02.999Z,54.02
2017-10-12T05:04:11.990Z,54.21
2017-10-12T05:05:20.992Z,54.02
2017-10-12T05:06:29.657Z,53.92
2017-10-12T05:07:38.986Z,53.92
2017-10-12T05:08:48.639Z,54.11
2017-10-12T05:09:57.977Z,53.83
2017-10-12T05:11:06.657Z,54.11
2017-10-12T05:12:15.985Z,54.11
2017-10-12T05:13:24.971Z,53.83
2017-10-12T05:14:33.628Z,53.83
2017-10-12T05:15:43.626Z,54.21
2017-10-12T05:16:52.290Z,54.21
2017-10-12T05:18:00.970Z,53.92
2017-10-12T05:19:09.951Z,54.31
2017-10-12T05:20:18.597Z,54.31
2017-10-12T05:21:27.610Z,54.14
2017-10-12T05:22:36.938Z,54.21
2017-10-12T05:23:45.636Z,54.31
2017-10-12T05:24:54.314Z,53.95
2017-10-12T05:26:03.633Z,53.95
2017-10-12T05:27:12.622Z,54.05
2017-10-12T05:28:21.979Z,53.85
2017-10-12T05:29:31.012Z,53.95
2017-10-12T05:30:39.713Z,53.85
2017-10-12T05:31:49.425Z,54.24
2017-10-12T05:32:58.429Z,54.05
2017-10-12T05:34:07.478Z,53.66
2017-10-12T05:35:16.485Z,53.75
2017-10-12T05:36:25.507Z,53.56
2017-10-12T05:37:35.138Z,53.56
2017-10-12T05:38:44.626Z,53.37
2017-10-12T05:39:54.348Z,53.47
2017-10-12T05:41:03.158Z,53.95
2017-10-12T05:42:12.899Z,53.75
2017-10-12T05:43:22.204Z,53.27
2017-10-12T05:44:31.665Z,53.37
2017-10-12T05:45:41.006Z,53.56
2017-10-12T05:46:50.041Z,53.08
2017-10-12T05:47:59.334Z,53.27
2017-10-12T05:49:08.333Z,53.37
2017-10-12T05:50:17.092Z,53.27
2017-10-12T05:51:26.097Z,53.27
2017-10-12T05:52:36.085Z,53.08
2017-10-12T05:53:44.782Z,53.56
2017-10-12T05:54:53.781Z,53.56
2017-10-12T05:56:03.155Z,53.85
2017-10-12T05:57:12.854Z,54.24
2017-10-12T05:58:22.294Z,54.05
2017-10-12T05:59:31.337Z,54.31
2017-10-12T06:00:40.048Z,54.4
2017-10-12T06:01:49.033Z,54.6
2017-10-12T06:02:58.060Z,54.69
2017-10-12T06:04:07.759Z,54.4
2017-10-12T06:05:17.472Z,54.4
2017-10-12T06:06:26.162Z,54.4
2017-10-12T06:07:35.497Z,54.31
2017-10-12T06:08:44.835Z,54.69
2017-10-12T06:09:54.520Z,54.88
2017-10-12T06:11:03.186Z,54.6
2017-10-12T06:12:12.182Z,54.31
2017-10-12T06:13:21.159Z,54.4
2017-10-12T06:14:29.805Z,54.31
2017-10-12T06:15:38.801Z,54.4
2017-10-12T06:16:48.126Z,54.6
2017-10-12T06:17:57.427Z,54.4
2017-10-12T06:19:06.083Z,54.4
2017-10-12T06:20:15.074Z,54.5
2017-10-12T06:21:24.059Z,54.5
2017-10-12T06:22:33.033Z,54.4
2017-10-12T06:23:42.026Z,53.92
2017-10-12T06:25:59.099Z,54.43
2017-10-12T06:27:08.511Z,54.24
2017-10-12T06:28:17.599Z,54.43
2017-10-12T06:29:26.349Z,53.95
2017-10-12T06:30:35.425Z,53.75
2017-10-12T06:31:44.185Z,54.14
2017-10-12T06:32:53.264Z,54.14
2017-10-12T06:34:02.686Z,54.14
2017-10-12T06:35:12.487Z,54.24
2017-10-12T06:36:21.573Z,54.24
2017-10-12T06:37:31.316Z,54.24
2017-10-12T06:38:40.396Z,54.05
2017-10-12T06:39:50.891Z,54.14
2017-10-12T06:41:00.315Z,54.43
2017-10-12T06:42:09.750Z,54.33
2017-10-12T06:43:18.853Z,54.33
2017-10-12T06:44:27.985Z,54.33
2017-10-12T06:45:37.074Z,54.14
2017-10-12T06:46:46.158Z,54.24
2017-10-12T06:47:54.901Z,54.14
2017-10-12T06:49:04.427Z,54.33
2017-10-12T06:50:13.850Z,53.66
2017-10-12T06:51:22.601Z,54.62
2017-10-12T06:52:32.034Z,54.05
2017-10-12T06:53:41.128Z,53.95
2017-10-12T06:54:49.866Z,53.85
2017-10-12T06:55:59.287Z,53.85
2017-10-12T06:57:08.033Z,53.85
2017-10-12T06:58:17.436Z,53.85
2017-10-12T06:59:26.203Z,53.85
2017-10-12T07:00:35.357Z,53.95
2017-10-12T07:01:44.449Z,53.85
2017-10-12T07:02:53.199Z,53.66
2017-10-12T07:04:01.971Z,54.05
2017-10-12T07:05:11.716Z,54.05
2017-10-12T07:06:20.798Z,54.14
2017-10-12T07:07:30.224Z,54.05
2017-10-12T07:08:39.315Z,53.95
2017-10-12T07:09:48.056Z,53.85
2017-10-12T07:10:56.809Z,53.95
2017-10-12T07:12:05.899Z,53.75
2017-10-12T07:13:14.992Z,54.05
2017-10-12T07:14:24.421Z,54.05
2017-10-12T07:15:33.828Z,54.05
2017-10-12T07:16:42.952Z,53.85
2017-10-12T07:17:52.455Z,54.24
2017-10-12T07:19:01.565Z,54.14
2017-10-12T07:20:10.421Z,54.14
2017-10-12T07:21:19.883Z,54.05
2017-10-12T07:22:29.301Z,54.05
2017-10-12T07:23:38.758Z,53.95
2017-10-12T07:24:47.582Z,53.47
2017-10-12T07:25:57.353Z,53.49
2017-10-12T07:27:06.097Z,53.59
2017-10-12T07:28:14.842Z,53.56
2017-10-12T07:29:23.948Z,53.66
2017-10-12T07:30:33.371Z,53.47
2017-10-12T07:31:42.801Z,53.78
2017-10-12T07:32:51.937Z,54.46
2017-10-12T07:34:01.707Z,54.24
2017-10-12T07:35:10.904Z,53.49
2017-10-12T07:36:20.316Z,53.37
2017-10-12T07:37:29.403Z,53.78
2017-10-12T07:38:38.819Z,53.78
2017-10-12T07:39:47.588Z,53.39
2017-10-12T07:40:56.425Z,54.07
2017-10-12T07:42:05.854Z,53.78
2017-10-12T07:43:14.589Z,53.49
2017-10-12T07:44:23.579Z,54.36
2017-10-12T07:45:32.252Z,53.69
2017-10-12T07:46:40.985Z,53.59
2017-10-12T07:47:49.662Z,53.88
2017-10-12T07:48:58.677Z,53.56
2017-10-12T07:50:07.350Z,53.39
2017-10-12T07:51:16.356Z,53.3
2017-10-12T07:52:25.024Z,53.49
2017-10-12T07:53:34.348Z,53.69
2017-10-12T07:54:43.395Z,53.3
2017-10-12T07:55:52.414Z,53.11
2017-10-12T07:57:01.763Z,53.39
2017-10-12T07:58:10.442Z,53.39
2017-10-12T07:59:19.794Z,53.39
2017-10-12T08:00:29.444Z,53.3
2017-10-12T08:01:38.472Z,53.3
2017-10-12T08:02:47.130Z,53.49
2017-10-12T08:03:56.571Z,53.2
2017-10-12T08:05:05.563Z,53.49
2017-10-12T08:06:14.907Z,53.11
2017-10-12T08:07:24.308Z,53.59
2017-10-12T08:08:33.371Z,53.49
2017-10-12T08:09:42.391Z,53.2
2017-10-12T08:10:52.074Z,53.3
2017-10-12T08:12:00.751Z,53.39
2017-10-12T08:13:09.745Z,53.39
2017-10-12T08:14:18.432Z,53.39
2017-10-12T08:15:27.755Z,53.2
2017-10-12T08:16:37.079Z,53.2
2017-10-12T08:17:45.760Z,53.3
2017-10-12T08:18:55.085Z,53.39
2017-10-12T08:20:04.081Z,53.59
2017-10-12T08:21:13.099Z,52.91
2017-10-12T08:22:22.143Z,53.3
2017-10-12T08:23:31.487Z,53.49
2017-10-12T08:24:40.826Z,53.3
2017-10-12T08:25:49.883Z,53.39
2017-10-12T08:26:59.333Z,53.69
2017-10-12T08:28:08.641Z,53.69
2017-10-12T08:29:18.614Z,53.69
2017-10-12T08:30:28.277Z,53.39
2017-10-12T08:31:37.632Z,53.59
2017-10-12T08:32:46.649Z,53.78
2017-10-12T08:33:55.364Z,53.78
2017-10-12T08:35:05.012Z,53.39
2017-10-12T08:36:13.709Z,53.49
2017-10-12T08:37:22.709Z,53.78
2017-10-12T08:38:31.712Z,53.39
2017-10-12T08:39:40.695Z,53.78
2017-10-12T08:40:50.018Z,53.69
2017-10-12T08:41:59.352Z,53.59
2017-10-12T08:43:08.994Z,53.39
2017-10-12T08:44:17.663Z,53.39
2017-10-12T08:45:27.010Z,53.78
2017-10-12T08:46:36.008Z,53.88
2017-10-12T08:47:44.683Z,53.39
2017-10-12T08:48:54.416Z,53.78
2017-10-12T08:50:03.726Z,53.3
2017-10-12T08:51:12.735Z,53.49
2017-10-12T08:52:21.730Z,53.3
2017-10-12T08:53:31.053Z,53.49
2017-10-12T08:54:40.053Z,53.59
2017-10-12T08:55:49.355Z,53.88
2017-10-12T08:56:58.698Z,53.2
2017-10-12T08:58:08.037Z,53.3
2017-10-12T08:59:17.065Z,53.2
2017-10-12T09:00:26.086Z,53.88
2017-10-12T09:01:35.107Z,53.49
2017-10-12T09:02:45.121Z,53.49
2017-10-12T09:03:54.124Z,53.39
2017-10-12T09:05:02.792Z,53.39
2017-10-12T09:06:12.477Z,53.39
2017-10-12T09:07:22.174Z,53.59
2017-10-12T09:08:31.189Z,53.69
2017-10-12T09:09:40.195Z,53.39
2017-10-12T09:10:48.911Z,53.88
2017-10-12T09:11:57.917Z,53.49
2017-10-12T09:13:06.710Z,53.39
2017-10-12T09:14:15.709Z,54.46
2017-10-12T09:15:24.387Z,53.59
2017-10-12T09:16:33.417Z,53.78
2017-10-12T09:17:42.400Z,53.59
2017-10-12T09:18:51.724Z,53.78
2017-10-12T09:20:01.085Z,53.59
2017-10-12T09:21:09.771Z,53.59
2017-10-12T09:22:19.429Z,53.3
2017-10-12T09:23:28.431Z,53.59
2017-10-12T09:24:37.422Z,53.39
2017-10-12T09:25:46.141Z,53.3
2017-10-12T09:26:55.154Z,53.39
2017-10-12T09:28:04.163Z,53.88
2017-10-12T09:29:13.803Z,54.36
2017-10-12T09:30:22.813Z,53.49
2017-10-12T09:31:31.805Z,54.07
2017-10-12T09:32:41.805Z,54.07
2017-10-12T09:33:50.794Z,53.88
2017-10-12T09:34:59.813Z,53.97
2017-10-12T09:36:08.498Z,53.59
2017-10-12T09:37:17.505Z,54.17
2017-10-12T09:38:26.853Z,54.17
2017-10-12T09:39:35.887Z,54.17
2017-10-12T09:40:44.576Z,53.88
2017-10-12T09:41:53.245Z,54.07
2017-10-12T09:43:02.278Z,54.07
2017-10-12T09:44:10.947Z,53.88
2017-10-12T09:45:20.300Z,53.97
2017-10-12T09:46:29.020Z,53.88
2017-10-12T09:47:37.748Z,53.88
2017-10-12T09:48:47.106Z,53.88
2017-10-12T09:49:55.778Z,53.88
2017-10-12T09:51:04.850Z,54.07
2017-10-12T09:52:13.586Z,53.88
2017-10-12T09:53:22.976Z,53.97
2017-10-12T09:54:32.335Z,53.97
2017-10-12T09:55:41.351Z,54.36
2017-10-12T09:56:50.046Z,54.05
2017-10-12T09:57:58.758Z,54.07
2017-10-12T09:59:07.448Z,54.27
2017-10-12T10:00:17.104Z,54.27
2017-10-12T10:01:26.448Z,54.17
2017-10-12T10:02:35.769Z,54.17
2017-10-12T10:03:44.439Z,53.97
2017-10-12T10:04:54.139Z,54.27
2017-10-12T10:06:02.807Z,53.97
2017-10-12T10:07:12.154Z,54.17
2017-10-12T10:08:21.875Z,53.88
2017-10-12T10:09:31.195Z,53.88
2017-10-12T10:10:39.931Z,53.88
2017-10-12T10:11:48.953Z,54.07
2017-10-12T10:12:57.622Z,53.88
2017-10-12T10:14:07.292Z,53.88
2017-10-12T10:15:16.383Z,53.97
2017-10-12T10:16:25.718Z,53.97
2017-10-12T10:17:35.112Z,53.88
2017-10-12T10:18:44.470Z,53.88
2017-10-12T10:19:53.812Z,54.27
2017-10-12T10:21:02.823Z,54.36
2017-10-12T10:22:12.306Z,54.27
2017-10-12T10:23:21.313Z,54.27
2017-10-12T10:24:30.314Z,54.17
2017-10-12T10:25:39.993Z,54.17
2017-10-12T10:26:49.647Z,54.27
2017-10-12T10:27:58.434Z,53.97
2017-10-12T10:29:07.455Z,53.88
2017-10-12T10:30:17.161Z,53.39
2017-10-12T10:31:26.498Z,53.39
2017-10-12T10:32:35.169Z,53.78
2017-10-12T10:33:44.155Z,53.49
2017-10-12T10:34:53.513Z,53.39
2017-10-12T10:36:02.839Z,53.59
2017-10-12T10:37:12.519Z,53.78
2017-10-12T10:38:21.845Z,53.69
2017-10-12T10:39:31.189Z,53.49
2017-10-12T10:40:40.514Z,53.2
2017-10-12T10:41:49.175Z,53.2
2017-10-12T10:42:58.842Z,53.39
2017-10-12T10:44:08.222Z,53.59
2017-10-12T10:45:17.319Z,53.49
2017-10-12T10:46:26.328Z,53.59
2017-10-12T10:47:35.318Z,53.39
2017-10-12T10:48:44.308Z,53.2
2017-10-12T10:49:53.313Z,53.69
2017-10-12T10:51:02.104Z,53.59
2017-10-12T10:52:11.426Z,53.49
2017-10-12T10:53:20.435Z,53.3
2017-10-12T10:54:29.121Z,53.3
2017-10-12T10:55:38.461Z,53.39
2017-10-12T10:56:47.486Z,53.2
2017-10-12T10:57:56.867Z,53.49
2017-10-12T10:59:06.207Z,53.2
2017-10-12T11:00:15.225Z,53.59
2017-10-12T11:01:23.907Z,53.69
2017-10-12T11:02:32.998Z,53.49
2017-10-12T11:03:42.436Z,53.69
2017-10-12T11:04:51.805Z,53.59
2017-10-12T11:06:00.808Z,53.49
2017-10-12T11:07:10.134Z,53.39
2017-10-12T11:08:19.131Z,53.88
2017-10-12T11:09:28.456Z,53.39
2017-10-12T11:10:37.156Z,53.39
2017-10-12T11:11:45.892Z,53.39
2017-10-12T11:12:54.943Z,53.39
2017-10-12T11:14:03.986Z,53.69
2017-10-12T11:15:13.304Z,54.27
2017-10-12T11:16:22.655Z,53.39
2017-10-12T11:17:31.724Z,54.36
2017-10-12T11:18:41.365Z,53.39
2017-10-12T11:19:50.361Z,53.39
2017-10-12T11:20:59.404Z,53.49
2017-10-12T11:22:08.419Z,53.49
2017-10-12T11:23:17.112Z,53.39
2017-10-12T11:24:26.127Z,53.49
2017-10-12T11:25:35.494Z,53.78
2017-10-12T11:26:44.834Z,53.49
2017-10-12T11:27:53.883Z,53.39
2017-10-12T11:29:02.557Z,53.49
2017-10-12T11:30:11.596Z,53.39
2017-10-12T11:31:20.290Z,53.49
2017-10-12T11:32:29.012Z,53.39
2017-10-12T11:33:38.054Z,53.49
2017-10-12T11:34:47.064Z,53.59
2017-10-12T11:35:56.392Z,53.39
2017-10-12T11:37:05.449Z,53.3
2017-10-12T11:38:15.113Z,53.59
2017-10-12T11:39:24.451Z,53.39
2017-10-12T11:40:33.125Z,53.3
2017-10-12T11:41:41.808Z,53.39
2017-10-12T11:42:50.828Z,53.49
2017-10-12T11:43:59.844Z,53.59
2017-10-12T11:45:08.868Z,53.69
2017-10-12T11:46:17.899Z,53.39
2017-10-12T11:47:27.560Z,53.39
2017-10-12T11:48:36.913Z,53.59
2017-10-12T11:49:45.684Z,53.78
2017-10-12T11:50:54.448Z,53.49
2017-10-12T11:52:03.449Z,53.69
2017-10-12T11:53:12.179Z,53.3
2017-10-12T11:54:21.546Z,53.97
2017-10-12T11:55:30.257Z,53.69
2017-10-12T11:56:39.297Z,53.49
2017-10-12T11:57:48.302Z,53.78
2017-10-12T11:58:57.322Z,53.2
2017-10-12T12:00:06.622Z,53.49
2017-10-12T12:01:15.289Z,53.2
2017-10-12T12:02:24.616Z,53.59
2017-10-12T12:03:33.982Z,53.39
2017-10-12T12:04:43.036Z,53.59
2017-10-12T12:05:52.680Z,53.39
2017-10-12T12:07:02.320Z,53.49
2017-10-12T12:08:11.311Z,53.39
2017-10-12T12:09:20.848Z,53.3
2017-10-12T12:10:29.921Z,53.3
2017-10-12T12:11:39.259Z,53.49
2017-10-12T12:12:48.589Z,53.3
2017-10-12T12:13:58.039Z,53.39
2017-10-12T12:15:06.764Z,53.3
2017-10-12T12:16:16.460Z,53.3
2017-10-12T12:17:25.580Z,53.2
2017-10-12T12:18:35.591Z,53.69
2017-10-12T12:19:44.591Z,53.39
2017-10-12T12:20:54.046Z,53.88
2017-10-12T12:22:02.764Z,53.97
2017-10-12T12:23:12.600Z,53.2
2017-10-12T12:24:21.951Z,53.69
2017-10-12T12:25:30.967Z,53.3
2017-10-12T12:26:39.633Z,53.97
2017-10-12T12:27:49.664Z,53.49
2017-10-12T12:28:58.338Z,53.3
2017-10-12T12:30:07.352Z,53.69
2017-10-12T12:31:16.363Z,53.69
2017-10-12T12:32:25.684Z,53.39
2017-10-12T12:33:34.703Z,53.39
2017-10-12T12:34:43.376Z,53.39
2017-10-12T12:35:52.392Z,53.39
2017-10-12T12:37:01.068Z,53.69
2017-10-12T12:38:10.396Z,53.39
2017-10-12T12:39:19.813Z,53.39
2017-10-12T12:40:29.137Z,53.69
2017-10-12T12:41:38.465Z,53.78
2017-10-12T12:42:47.479Z,53.49
2017-10-12T12:43:56.868Z,53.39
2017-10-12T12:45:06.210Z,53.59
2017-10-12T12:46:14.996Z,54.27
2017-10-12T12:47:24.140Z,53.39
2017-10-12T12:48:33.138Z,53.3
2017-10-12T12:49:42.807Z,53.59
2017-10-12T12:50:53.532Z,54.07
2017-10-12T12:52:03.875Z,53.49
2017-10-12T12:53:13.547Z,53.49
2017-10-12T12:54:22.930Z,53.59
2017-10-12T12:55:31.935Z,53.3
2017-10-12T12:56:40.950Z,53.88
2017-10-12T12:57:50.298Z,53.39
2017-10-12T12:58:59.023Z,53.59
2017-10-12T13:00:08.093Z,53.69
2017-10-12T13:01:17.411Z,53.88
2017-10-12T13:02:26.412Z,53.59
2017-10-12T13:03:35.424Z,53.39
2017-10-12T13:04:45.101Z,53.39
2017-10-12T13:05:54.133Z,53.39
2017-10-12T13:07:03.458Z,53.39
2017-10-12T13:08:12.444Z,53.49
2017-10-12T13:09:21.469Z,53.97
2017-10-12T13:10:30.133Z,53.69
2017-10-12T13:11:39.830Z,54.07
2017-10-12T13:12:48.850Z,53.97
2017-10-12T13:13:57.538Z,53.88
2017-10-12T13:15:06.888Z,53.59
2017-10-12T13:16:15.886Z,53.49
2017-10-12T13:17:24.889Z,54.07
2017-10-12T13:18:34.558Z,53.97
2017-10-12T13:19:43.897Z,53.97
2017-10-12T13:20:52.905Z,53.49
2017-10-12T13:22:01.919Z,53.69
2017-10-12T13:23:10.612Z,53.49
2017-10-12T13:24:19.648Z,53.59
2017-10-12T13:25:28.681Z,53.69
2017-10-12T13:26:38.046Z,53.49
2017-10-12T13:27:47.387Z,53.49
2017-10-12T13:28:57.058Z,53.39
2017-10-12T13:30:06.394Z,53.78
2017-10-12T13:31:15.420Z,53.59
2017-10-12T13:32:24.806Z,53.69
2017-10-12T13:33:33.809Z,53.78
2017-10-12T13:34:43.134Z,53.69
2017-10-12T13:35:52.786Z,53.78
2017-10-12T13:37:01.864Z,53.59
2017-10-12T13:38:11.194Z,53.39
2017-10-12T13:39:20.539Z,53.78
2017-10-12T13:40:29.545Z,53.59
2017-10-12T13:41:38.563Z,53.97
2017-10-12T13:42:47.236Z,53.59
2017-10-12T13:43:55.905Z,53.3
2017-10-12T13:45:04.926Z,53.49
2017-10-12T13:46:14.269Z,53.59
2017-10-12T13:47:23.367Z,53.39
2017-10-12T13:48:32.086Z,53.69
2017-10-12T13:49:41.099Z,53.78
2017-10-12T13:50:50.106Z,53.39
2017-10-12T13:51:59.142Z,53.39
2017-10-12T13:53:08.133Z,53.88
2017-10-12T13:54:17.188Z,53.69
2017-10-12T13:55:25.865Z,53.39
2017-10-12T13:56:34.567Z,53.39
2017-10-12T13:57:44.612Z,53.39
2017-10-12T13:58:53.270Z,53.78
2017-10-12T14:00:01.950Z,53.39
2017-10-12T14:01:11.019Z,53.39
2017-10-12T14:02:20.022Z,53.39
2017-10-12T14:03:29.065Z,53.3
2017-10-12T14:04:37.782Z,53.59
2017-10-12T14:05:47.437Z,53.59
2017-10-12T14:06:57.221Z,53.39
2017-10-12T14:08:06.770Z,53.69
2017-10-12T14:09:16.134Z,53.39
2017-10-12T14:10:25.123Z,53.49
2017-10-12T14:11:34.146Z,53.88
2017-10-12T14:12:43.465Z,53.39
2017-10-12T14:13:52.478Z,53.39
2017-10-12T14:15:01.473Z,53.39
2017-10-12T14:16:10.799Z,53.49
2017-10-12T14:17:20.483Z,53.39
2017-10-12T14:18:29.486Z,53.3
2017-10-12T14:19:38.813Z,53.59
2017-10-12T14:20:47.804Z,53.11
2017-10-12T14:21:56.798Z,53.69
2017-10-12T14:23:05.798Z,53.3
2017-10-12T14:24:14.470Z,53.59
2017-10-12T14:25:24.161Z,53.59
2017-10-12T14:26:34.170Z,53.49
2017-10-12T14:27:42.847Z,53.69
2017-10-12T14:28:52.481Z,53.49
2017-10-12T14:30:02.239Z,53.49
2017-10-12T14:31:12.238Z,53.49
2017-10-12T14:32:21.594Z,54.27
2017-10-12T14:33:30.598Z,53.69
2017-10-12T14:34:39.287Z,53.78
2017-10-12T14:35:48.320Z,53.39
2017-10-12T14:36:57.683Z,53.49
2017-10-12T14:38:06.699Z,53.39
2017-10-12T14:39:15.679Z,53.69
2017-10-12T14:40:25.008Z,53.39
2017-10-12T14:41:34.673Z,53.3
2017-10-12T14:42:43.686Z,53.39
2017-10-12T14:43:52.745Z,53.3
2017-10-12T14:45:02.457Z,53.59
2017-10-12T14:46:11.469Z,53.39
2017-10-12T14:47:20.486Z,53.3
2017-10-12T14:48:30.140Z,53.3
2017-10-12T14:49:38.815Z,53.3
2017-10-12T14:50:47.820Z,53.59
2017-10-12T14:51:56.501Z,53.49
2017-10-12T14:53:05.949Z,53.69